Time;durP1;ratioP1;P1;durP2;ratioP2;P2;SDS_P1;SDS_P2;PMS_P1;PMS_P2;Temp;Humidity;BMP_temperature;BMP_pressure;BME280_temperature;BME280_humidity;BME280_pressure;Samples;Min_cycle;Max_cycle;Signal;HPM_P1;HPM_P2
2023/09/24 00:00:10;;;;;;;2.53;2.37;;;15.50;50.60;;;;;;20385;6885;279480;31
2023/09/24 00:02:29;;;;;;;2.37;2.17;;;15.80;50.50;;;;;;20349;6881;278537;31
2023/09/24 00:04:54;;;;;;;2.40;2.20;;;16.20;49.80;;;;;;20590;6885;124684;31
2023/09/24 00:07:20;;;;;;;2.40;2.20;;;16.10;49.30;;;;;;20598;6881;117201;31
2023/09/24 00:09:46;;;;;;;2.40;2.30;;;15.80;49.50;;;;;;20389;6881;309728;31
2023/09/24 00:12:12;;;;;;;3.13;2.00;;;16.00;49.60;;;;;;20605;6881;120273;31
2023/09/24 00:14:37;;;;;;;2.40;2.20;;;15.90;49.40;;;;;;20370;6881;305905;31
2023/09/24 00:17:03;;;;;;;3.05;2.08;;;16.00;49.50;;;;;;20385;6885;309941;31
2023/09/24 00:19:28;;;;;;;2.08;1.87;;;16.30;48.90;;;;;;20605;6881;117396;31
2023/09/24 00:21:54;;;;;;;2.40;2.22;;;16.10;48.80;;;;;;20387;6881;309246;31
2023/09/24 00:24:20;;;;;;;2.10;2.00;;;16.20;49.20;;;;;;20594;6885;121008;31
2023/09/24 00:26:46;;;;;;;2.57;1.90;;;16.00;49.20;;;;;;20463;6881;122486;31
2023/09/24 00:29:11;;;;;;;2.10;2.00;;;15.70;49.50;;;;;;20600;6881;120935;31
2023/09/24 00:31:37;;;;;;;2.58;1.70;;;15.50;49.80;;;;;;20605;6881;119667;31
2023/09/24 00:34:02;;;;;;;2.00;1.62;;;15.30;50.00;;;;;;20603;6881;118532;31
2023/09/24 00:36:28;;;;;;;2.00;1.90;;;15.10;50.20;;;;;;20379;6879;310487;31
2023/09/24 00:38:54;;;;;;;2.03;1.90;;;15.30;50.60;;;;;;20592;6884;120560;31
2023/09/24 00:41:20;;;;;;;2.03;1.70;;;15.30;50.30;;;;;;20597;6881;118164;31
2023/09/24 00:43:45;;;;;;;2.20;2.10;;;15.10;50.40;;;;;;20383;6885;309244;31
2023/09/24 00:46:11;;;;;;;2.60;2.07;;;15.30;50.90;;;;;;20392;6881;308999;31
2023/09/24 00:48:37;;;;;;;2.00;1.80;;;15.70;50.50;;;;;;20583;6881;120529;31
2023/09/24 00:51:02;;;;;;;3.60;2.20;;;15.50;50.10;;;;;;20374;6885;309084;31
2023/09/24 00:53:28;;;;;;;2.37;2.17;;;15.60;50.40;;;;;;20606;6870;120764;31
2023/09/24 00:55:56;;;;;;;1.80;1.70;;;15.50;50.40;;;;;;20604;6881;116981;31
2023/09/24 00:58:23;;;;;;;2.23;2.13;;;15.20;51.30;;;;;;20368;6881;312277;31
2023/09/24 01:00:48;;;;;;;2.33;2.12;;;15.30;51.30;;;;;;20594;6885;117338;31
2023/09/24 01:03:13;;;;;;;2.72;2.10;;;15.30;51.00;;;;;;20406;6881;279267;31
2023/09/24 01:05:40;;;;;;;2.40;2.20;;;15.50;51.00;;;;;;20378;6881;311769;31
2023/09/24 01:08:05;;;;;;;2.60;1.98;;;15.70;50.70;;;;;;20597;6885;117196;31
2023/09/24 01:10:30;;;;;;;2.30;1.77;;;15.50;50.50;;;;;;20587;6881;120722;31
2023/09/24 01:12:58;;;;;;;2.47;2.15;;;15.20;50.80;;;;;;20388;6885;281569;31
2023/09/24 01:15:24;;;;;;;2.20;2.00;;;15.20;51.50;;;;;;20632;6870;119965;31
2023/09/24 01:17:48;;;;;;;4.20;2.17;;;15.10;51.30;;;;;;20595;6881;118832;31
2023/09/24 01:20:14;;;;;;;3.10;2.25;;;14.80;51.50;;;;;;20381;6881;279057;31
2023/09/24 01:22:42;;;;;;;2.70;2.47;;;14.90;52.00;;;;;;20377;6879;283725;31
2023/09/24 01:25:08;;;;;;;2.97;2.77;;;15.20;51.70;;;;;;20392;6879;309735;31
2023/09/24 01:27:36;;;;;;;3.37;2.60;;;15.40;51.10;;;;;;20379;6885;282812;31
2023/09/24 01:30:05;;;;;;;3.00;2.50;;;15.60;50.70;;;;;;20393;6881;279583;31
2023/09/24 01:32:27;;;;;;;2.90;2.70;;;15.70;49.70;;;;;;20347;6881;308411;31
2023/09/24 01:34:54;;;;;;;3.20;2.90;;;15.80;50.50;;;;;;20401;6881;308932;31
2023/09/24 01:37:21;;;;;;;3.20;2.90;;;15.80;49.50;;;;;;20379;6885;305297;31
2023/09/24 01:39:45;;;;;;;2.90;2.60;;;15.90;49.50;;;;;;20391;6881;281451;31
2023/09/24 01:42:13;;;;;;;3.28;2.70;;;15.90;49.60;;;;;;20388;6881;338459;31
2023/09/24 01:44:35;;;;;;;2.12;2.00;;;15.80;49.50;;;;;;20588;6881;117798;31
2023/09/24 01:47:03;;;;;;;2.77;2.50;;;15.50;49.70;;;;;;20612;6885;120139;31
2023/09/24 01:49:29;;;;;;;3.30;2.70;;;15.10;50.40;;;;;;20391;6880;278265;31
2023/09/24 01:51:53;;;;;;;2.58;2.40;;;15.00;51.00;;;;;;20393;6881;341809;31
2023/09/24 01:54:20;;;;;;;2.90;2.60;;;15.20;51.20;;;;;;20399;6881;309407;31
2023/09/24 01:56:45;;;;;;;2.67;2.47;;;15.40;51.10;;;;;;20364;6881;342099;31
2023/09/24 01:59:10;;;;;;;3.10;2.90;;;15.50;51.00;;;;;;20372;6885;280238;31
2023/09/24 02:01:36;;;;;;;3.75;2.30;;;15.60;50.60;;;;;;20614;6881;118377;31
2023/09/24 02:04:03;;;;;;;3.07;2.70;;;15.30;50.70;;;;;;20400;6885;309940;31
2023/09/24 02:06:27;;;;;;;2.80;2.60;;;15.20;51.00;;;;;;20572;6881;117975;31
2023/09/24 02:08:53;;;;;;;2.80;2.60;;;15.00;51.00;;;;;;20381;6885;309942;31
2023/09/24 02:11:18;;;;;;;3.20;2.42;;;15.00;51.50;;;;;;20602;6881;119953;31
2023/09/24 02:13:44;;;;;;;2.45;2.20;;;14.90;51.50;;;;;;20597;6881;119163;31
2023/09/24 02:16:11;;;;;;;2.37;2.17;;;14.60;51.70;;;;;;20602;6881;119469;31
2023/09/24 02:18:36;;;;;;;2.80;2.58;;;14.40;52.00;;;;;;20348;6885;283693;31
2023/09/24 02:21:04;;;;;;;3.22;2.28;;;14.50;52.20;;;;;;20598;6881;117208;31
2023/09/24 02:23:29;;;;;;;2.80;2.60;;;14.50;52.00;;;;;;20368;6885;295868;31
2023/09/24 02:25:55;;;;;;;2.87;2.58;;;14.60;51.80;;;;;;20382;6881;309026;31
2023/09/24 02:28:20;;;;;;;3.20;2.90;;;14.90;51.30;;;;;;20393;6881;312148;31
2023/09/24 02:30:47;;;;;;;2.80;2.60;;;15.00;50.60;;;;;;20434;6866;308051;31
2023/09/24 02:33:12;;;;;;;3.10;2.80;;;15.20;50.40;;;;;;20369;6885;310186;31
2023/09/24 02:35:38;;;;;;;3.05;2.80;;;15.30;50.30;;;;;;20387;6881;300158;31
2023/09/24 02:38:07;;;;;;;2.50;2.40;;;15.30;50.30;;;;;;20598;6881;117250;31
2023/09/24 02:40:30;;;;;;;11.07;10.17;;;15.10;50.40;;;;;;20348;6881;313344;31
2023/09/24 02:42:57;;;;;;;4.15;3.85;;;15.00;50.80;;;;;;20378;6885;299931;31
2023/09/24 02:45:23;;;;;;;3.57;3.27;;;15.20;50.70;;;;;;20387;6881;310609;31
2023/09/24 02:47:52;;;;;;;3.50;3.20;;;15.30;50.50;;;;;;20389;6881;337990;31
2023/09/24 02:50:18;;;;;;;3.70;3.37;;;15.50;50.10;;;;;;20385;6885;279808;31
2023/09/24 02:52:43;;;;;;;2.90;2.70;;;15.50;49.70;;;;;;20390;6870;308269;31
2023/09/24 02:55:10;;;;;;;2.70;2.50;;;15.60;49.70;;;;;;20592;6881;123501;31
2023/09/24 02:57:35;;;;;;;2.50;2.30;;;15.30;50.00;;;;;;20373;6881;310128;31
2023/09/24 03:00:00;;;;;;;2.37;2.10;;;15.20;50.90;;;;;;20588;6883;117110;31
2023/09/24 03:02:28;;;;;;;2.50;2.30;;;15.00;50.40;;;;;;20374;6881;279676;31
2023/09/24 03:04:54;;;;;;;1.90;1.80;;;14.90;50.30;;;;;;20576;6885;119512;31
2023/09/24 03:07:19;;;;;;;1.80;1.70;;;14.80;50.40;;;;;;20587;6881;117601;31
2023/09/24 03:09:45;;;;;;;2.40;2.20;;;14.40;50.60;;;;;;20388;6885;281789;31
2023/09/24 03:12:12;;;;;;;2.58;2.00;;;14.50;51.00;;;;;;20606;6881;117436;31
2023/09/24 03:14:36;;;;;;;2.90;1.90;;;14.40;50.80;;;;;;20584;6881;119390;31
2023/09/24 03:17:02;;;;;;;2.37;2.17;;;14.20;51.20;;;;;;20381;6885;309687;31
2023/09/24 03:19:28;;;;;;;2.20;2.00;;;14.30;51.40;;;;;;20606;6881;119525;31
2023/09/24 03:21:53;;;;;;;2.20;2.10;;;14.20;51.10;;;;;;20389;6881;309993;31
2023/09/24 03:24:19;;;;;;;2.35;2.15;;;14.30;50.80;;;;;;20397;6881;278879;31
2023/09/24 03:26:47;;;;;;;2.17;2.07;;;14.60;50.40;;;;;;20370;6881;338811;31
2023/09/24 03:29:11;;;;;;;2.67;2.07;;;14.80;50.30;;;;;;20597;6881;120628;31
2023/09/24 03:31:36;;;;;;;2.30;2.10;;;14.70;50.50;;;;;;20382;6885;297045;31
2023/09/24 03:34:02;;;;;;;2.30;1.83;;;14.60;50.20;;;;;;20605;6881;120771;31
2023/09/24 03:36:28;;;;;;;2.40;2.30;;;14.50;50.50;;;;;;20374;6881;309307;31
2023/09/24 03:38:53;;;;;;;2.30;2.12;;;14.50;50.80;;;;;;20391;6881;308954;31
2023/09/24 03:41:19;;;;;;;1.98;1.87;;;14.70;50.20;;;;;;20607;6881;119243;31
2023/09/24 03:43:44;;;;;;;2.78;2.17;;;14.50;50.20;;;;;;20389;6885;283703;31
2023/09/24 03:46:10;;;;;;;2.37;2.15;;;14.60;50.30;;;;;;20391;6881;309489;31
2023/09/24 03:48:35;;;;;;;2.40;2.20;;;14.70;50.00;;;;;;20373;6881;279898;31
2023/09/24 03:51:01;;;;;;;2.10;2.00;;;14.90;49.80;;;;;;20382;6885;309831;31
2023/09/24 03:53:27;;;;;;;2.25;2.15;;;15.00;49.50;;;;;;20392;6881;296983;31
2023/09/24 03:55:53;;;;;;;2.33;1.80;;;15.00;49.20;;;;;;20594;6885;117156;31
2023/09/24 03:58:19;;;;;;;2.05;1.95;;;14.70;49.50;;;;;;20383;6881;338384;31
2023/09/24 04:00:44;;;;;;;2.53;2.20;;;14.70;49.80;;;;;;20374;6881;279854;31
2023/09/24 04:03:10;;;;;;;2.25;2.12;;;14.80;49.40;;;;;;20384;6885;309985;31
2023/09/24 04:05:36;;;;;;;2.10;1.97;;;14.90;49.60;;;;;;20597;6881;122491;31
2023/09/24 04:08:03;;;;;;;1.95;1.85;;;14.60;49.80;;;;;;20607;6881;117031;31
2023/09/24 04:10:27;;;;;;;2.33;2.23;;;14.20;50.40;;;;;;20353;6883;309035;31
2023/09/24 04:12:52;;;;;;;2.23;2.13;;;14.10;51.30;;;;;;20602;6880;117257;31
2023/09/24 04:15:18;;;;;;;2.22;1.85;;;14.00;50.80;;;;;;20608;6881;117411;31
2023/09/24 04:17:44;;;;;;;2.70;2.08;;;13.70;51.30;;;;;;20382;6885;284315;31
2023/09/24 04:20:15;;;;;;;4.10;2.10;;;13.80;51.90;;;;;;20426;6870;281335;31
2023/09/24 04:22:38;;;;;;;1.70;1.60;;;14.10;50.90;;;;;;20578;6881;121418;31
2023/09/24 04:25:04;;;;;;;1.73;1.62;;;14.00;50.60;;;;;;20591;6885;117389;31
2023/09/24 04:27:30;;;;;;;2.00;1.90;;;13.70;50.90;;;;;;20610;6881;119529;31
2023/09/24 04:29:55;;;;;;;3.78;2.40;;;13.40;51.20;;;;;;20606;6881;118305;31
2023/09/24 04:32:21;;;;;;;2.50;1.77;;;13.20;51.50;;;;;;20381;6881;309620;31
2023/09/24 04:34:46;;;;;;;2.50;1.73;;;13.30;51.40;;;;;;20590;6881;119524;31
2023/09/24 04:37:18;;;;;;;2.00;1.90;;;13.30;51.30;;;;;;20372;6881;309839;31
2023/09/24 04:39:45;;;;;;;1.57;1.47;;;13.40;51.30;;;;;;20353;6881;117156;31
2023/09/24 04:42:41;;;;;;;1.87;1.77;;;13.30;51.00;;;;;;20560;6881;122100;31
2023/09/24 04:45:11;;;;;;;2.20;2.10;;;13.10;51.30;;;;;;20289;6885;279175;31
2023/09/24 04:47:39;;;;;;;3.10;2.10;;;13.30;51.30;;;;;;20349;6881;310350;31
2023/09/24 04:50:05;;;;;;;2.63;2.40;;;13.60;50.80;;;;;;20559;6881;118280;31
2023/09/24 04:52:31;;;;;;;2.33;2.23;;;13.50;51.40;;;;;;20316;6885;294146;31
2023/09/24 04:54:58;;;;;;;2.60;2.40;;;13.50;50.70;;;;;;20341;6881;312731;31
2023/09/24 04:57:23;;;;;;;2.63;2.43;;;13.70;50.30;;;;;;20361;6881;280066;31
2023/09/24 04:59:53;;;;;;;4.00;2.47;;;13.90;50.20;;;;;;20394;6881;279029;31
2023/09/24 05:02:14;;;;;;;2.40;2.30;;;14.10;50.10;;;;;;20374;6885;280121;31
2023/09/24 05:04:40;;;;;;;2.50;2.30;;;14.20;49.90;;;;;;20378;6881;282269;31
2023/09/24 05:07:05;;;;;;;2.08;1.98;;;14.30;49.50;;;;;;20599;6881;120420;31
2023/09/24 05:09:31;;;;;;;2.37;2.10;;;14.00;49.80;;;;;;20388;6881;310084;31
2023/09/24 05:11:58;;;;;;;2.22;2.12;;;13.90;50.40;;;;;;20587;6885;117483;31
2023/09/24 05:14:24;;;;;;;2.03;1.93;;;13.70;50.70;;;;;;20578;6881;120187;31
2023/09/24 05:16:51;;;;;;;2.37;1.73;;;13.40;50.70;;;;;;20567;6885;117803;31
2023/09/24 05:19:15;;;;;;;3.40;2.15;;;13.20;51.40;;;;;;20389;6881;339359;31
2023/09/24 05:21:41;;;;;;;69.30;3.87;;;13.30;51.30;;;;;;20587;6885;117204;31
2023/09/24 05:24:08;;;;;;;36.70;2.87;;;13.20;50.80;;;;;;20393;6880;279632;31
2023/09/24 05:26:32;;;;;;;97.33;5.10;;;13.20;51.40;;;;;;20370;6881;309088;31
2023/09/24 05:28:58;;;;;;;1.48;1.48;;;13.50;50.70;;;;;;20599;6881;119591;31
2023/09/24 05:31:23;;;;;;;4.47;2.30;;;13.30;50.50;;;;;;20600;6881;122030;31
2023/09/24 05:33:53;;;;;;;2.40;2.30;;;13.00;51.10;;;;;;20390;6881;312408;31
2023/09/24 05:36:19;;;;;;;2.50;2.40;;;13.00;51.10;;;;;;20374;6885;309009;31
2023/09/24 05:38:44;;;;;;;3.17;2.67;;;13.30;50.50;;;;;;20376;6881;279948;31
2023/09/24 05:41:10;;;;;;;2.40;2.17;;;13.60;50.70;;;;;;20380;6885;279552;31
2023/09/24 05:43:38;;;;;;;1.73;1.63;;;13.90;50.40;;;;;;20600;6881;122844;31
2023/09/24 05:46:02;;;;;;;2.10;2.00;;;13.80;50.70;;;;;;20385;6881;297443;31
2023/09/24 05:48:27;;;;;;;1.60;1.58;;;13.90;50.60;;;;;;20537;6881;121547;31
2023/09/24 05:50:54;;;;;;;1.63;1.63;;;13.90;50.90;;;;;;20579;6881;117090;31
2023/09/24 05:53:20;;;;;;;2.40;1.90;;;13.80;51.40;;;;;;20574;6881;123636;31
2023/09/24 05:55:52;;;;;;;1.40;1.40;;;13.70;51.70;;;;;;20577;6881;122643;31
2023/09/24 05:58:17;;;;;;;1.67;1.57;;;13.60;51.60;;;;;;20377;6885;280400;31
2023/09/24 06:00:45;;;;;;;1.60;1.60;;;13.90;50.70;;;;;;20391;6870;309665;31
2023/09/24 06:03:09;;;;;;;1.97;1.90;;;14.20;49.70;;;;;;20340;6881;315959;31
2023/09/24 06:05:35;;;;;;;2.97;1.80;;;14.50;49.10;;;;;;20395;6881;308186;31
2023/09/24 06:08:00;;;;;;;1.73;1.62;;;14.60;48.60;;;;;;20371;6885;280799;31
2023/09/24 06:10:27;;;;;;;2.00;1.90;;;14.70;48.90;;;;;;20367;6881;278573;31
2023/09/24 06:12:53;;;;;;;1.77;1.67;;;14.80;48.60;;;;;;20369;6885;337120;31
2023/09/24 06:15:18;;;;;;;1.57;1.50;;;15.00;48.10;;;;;;20598;6881;119470;31
2023/09/24 06:17:46;;;;;;;1.65;1.58;;;14.70;48.50;;;;;;20598;6881;117063;31
2023/09/24 06:20:11;;;;;;;2.40;1.70;;;14.40;49.30;;;;;;20311;6885;314361;31
2023/09/24 06:22:36;;;;;;;3.13;1.30;;;14.50;49.20;;;;;;20565;6881;122779;31
2023/09/24 06:25:03;;;;;;;135.15;4.55;;;14.50;49.40;;;;;;20374;6885;341092;31
2023/09/24 06:27:27;;;;;;;12.17;1.90;;;14.60;49.10;;;;;;20591;6881;117738;31
2023/09/24 06:29:53;;;;;;;32.97;2.33;;;14.50;49.20;;;;;;20581;6885;117332;31
2023/09/24 06:32:19;;;;;;;20.23;2.47;;;14.30;49.80;;;;;;20390;6881;308721;31
2023/09/24 06:34:44;;;;;;;74.57;3.37;;;14.40;50.00;;;;;;20369;6884;313415;31
2023/09/24 06:37:10;;;;;;;85.35;3.70;;;14.80;50.40;;;;;;20383;6881;310389;31
2023/09/24 06:39:35;;;;;;;10.93;2.33;;;15.00;49.20;;;;;;20370;6885;339106;31
2023/09/24 06:42:02;;;;;;;37.15;3.05;;;15.20;49.40;;;;;;20388;6881;279997;31
2023/09/24 06:44:26;;;;;;;53.73;3.43;;;15.40;49.00;;;;;;20372;6881;279517;31
2023/09/24 06:46:52;;;;;;;2.00;1.80;;;15.50;48.70;;;;;;20598;6881;119862;31
2023/09/24 06:49:18;;;;;;;3.13;2.20;;;15.30;48.80;;;;;;20372;6885;280331;31
2023/09/24 06:51:43;;;;;;;3.05;2.35;;;15.30;49.20;;;;;;20389;6881;309757;31
2023/09/24 06:54:09;;;;;;;1.95;1.77;;;15.50;49.20;;;;;;20584;6881;117045;31
2023/09/24 06:56:34;;;;;;;1.77;1.67;;;15.50;49.40;;;;;;20586;6879;118742;31
2023/09/24 06:59:00;;;;;;;1.90;1.80;;;15.30;50.00;;;;;;20403;6879;316535;31
2023/09/24 07:01:26;;;;;;;1.58;1.58;;;15.40;50.20;;;;;;20592;6885;117718;31
2023/09/24 07:03:51;;;;;;;1.80;1.70;;;15.50;50.10;;;;;;20605;6881;123666;31
2023/09/24 07:06:17;;;;;;;2.03;1.93;;;15.50;50.30;;;;;;20349;6885;309360;31
2023/09/24 07:08:42;;;;;;;1.80;1.70;;;15.70;50.10;;;;;;20549;6881;120423;31
2023/09/24 07:11:21;;;;;;;2.10;1.90;;;15.80;50.00;;;;;;20353;6885;316143;31
2023/09/24 07:13:46;;;;;;;2.33;1.77;;;16.10;49.90;;;;;;20235;6870;281680;31
2023/09/24 07:16:12;;;;;;;1.77;1.67;;;16.50;49.10;;;;;;20543;6881;116986;31
2023/09/24 07:18:37;;;;;;;1.90;1.80;;;16.60;49.10;;;;;;20332;6881;338191;31
2023/09/24 07:21:03;;;;;;;2.20;2.00;;;16.80;48.90;;;;;;20383;6881;280232;31
2023/09/24 07:23:29;;;;;;;2.15;1.95;;;17.20;48.40;;;;;;20596;6881;116965;31
2023/09/24 07:25:54;;;;;;;2.12;2.03;;;17.30;48.60;;;;;;20383;6885;292252;31
2023/09/24 07:28:24;;;;;;;1.97;1.87;;;17.50;47.90;;;;;;20592;6881;119101;31
2023/09/24 07:30:48;;;;;;;2.03;1.87;;;17.60;48.10;;;;;;20590;6881;118042;31
2023/09/24 07:33:14;;;;;;;2.07;1.73;;;17.50;48.50;;;;;;20590;6885;117341;31
2023/09/24 07:35:39;;;;;;;2.35;2.12;;;17.40;48.80;;;;;;20393;6881;280285;31
2023/09/24 07:38:05;;;;;;;2.00;1.90;;;17.70;48.30;;;;;;20392;6881;279405;31
2023/09/24 07:40:30;;;;;;;2.12;1.85;;;18.10;47.60;;;;;;20569;6885;123469;31
2023/09/24 07:42:56;;;;;;;1.42;1.40;;;18.20;47.40;;;;;;20602;6881;117576;31
2023/09/24 07:45:22;;;;;;;1.90;1.80;;;18.10;47.60;;;;;;20602;6879;122945;31
2023/09/24 07:47:47;;;;;;;1.90;1.80;;;18.00;47.80;;;;;;20594;6880;119183;31
2023/09/24 07:50:13;;;;;;;1.73;1.67;;;17.90;48.10;;;;;;20585;6881;120100;31
2023/09/24 07:52:38;;;;;;;1.70;1.70;;;17.90;48.30;;;;;;20544;6885;118993;31
2023/09/24 07:55:06;;;;;;;1.73;1.63;;;17.90;48.30;;;;;;20381;6881;298257;31
2023/09/24 07:57:30;;;;;;;1.60;1.50;;;18.30;47.90;;;;;;20592;6881;119133;31
2023/09/24 07:59:55;;;;;;;1.67;1.57;;;18.50;47.50;;;;;;20562;6881;117095;31
2023/09/24 08:02:21;;;;;;;1.80;1.70;;;18.40;47.50;;;;;;20377;6881;309066;31
2023/09/24 08:04:46;;;;;;;1.60;1.50;;;18.70;47.00;;;;;;20370;6881;305513;31
2023/09/24 08:07:12;;;;;;;1.90;1.80;;;19.20;45.80;;;;;;20510;6885;119272;31
2023/09/24 08:09:40;;;;;;;1.50;1.50;;;19.30;45.90;;;;;;20583;6881;119220;31
2023/09/24 08:12:04;;;;;;;1.80;1.70;;;19.30;46.20;;;;;;20356;6885;309637;31
2023/09/24 08:14:29;;;;;;;1.80;1.67;;;19.60;45.50;;;;;;20590;6881;119068;31
2023/09/24 08:16:55;;;;;;;2.00;1.85;;;19.60;45.50;;;;;;20372;6885;339426;31
2023/09/24 08:19:20;;;;;;;2.07;1.50;;;19.80;45.00;;;;;;20596;6881;117088;31
2023/09/24 08:21:46;;;;;;;2.25;1.70;;;19.90;45.00;;;;;;20353;6885;280281;31
2023/09/24 08:24:12;;;;;;;1.80;1.70;;;20.10;44.50;;;;;;20372;6881;285112;31
2023/09/24 08:26:37;;;;;;;1.83;1.60;;;20.40;44.10;;;;;;20370;6881;279836;31
2023/09/24 08:29:06;;;;;;;1.80;1.70;;;20.80;44.00;;;;;;20372;6881;339207;31
2023/09/24 08:31:29;;;;;;;1.70;1.60;;;21.10;43.70;;;;;;20377;6885;313487;31
2023/09/24 08:33:54;;;;;;;1.42;1.33;;;21.40;43.20;;;;;;20592;6881;119128;31
2023/09/24 08:36:21;;;;;;;1.80;1.57;;;21.40;43.50;;;;;;20575;6885;117374;31
2023/09/24 08:38:45;;;;;;;2.50;1.70;;;21.20;43.70;;;;;;20570;6881;117673;31
2023/09/24 08:41:11;;;;;;;2.10;1.70;;;21.00;43.90;;;;;;20375;6881;309028;31
2023/09/24 08:43:36;;;;;;;1.90;1.80;;;21.20;42.70;;;;;;20340;6881;331138;31
2023/09/24 08:46:02;;;;;;;1.75;1.65;;;21.50;42.10;;;;;;20378;6881;284225;31
2023/09/24 08:48:29;;;;;;;1.80;1.70;;;21.80;42.40;;;;;;20341;6885;309487;31
2023/09/24 08:50:54;;;;;;;3.10;1.60;;;22.10;42.00;;;;;;20581;6881;117377;31
2023/09/24 08:53:21;;;;;;;1.80;1.70;;;22.00;42.20;;;;;;20568;6885;119865;31
2023/09/24 08:55:46;;;;;;;1.90;1.80;;;21.90;42.40;;;;;;20609;6870;117141;31
2023/09/24 08:58:11;;;;;;;1.20;1.20;;;21.70;42.60;;;;;;20586;6880;117055;31
2023/09/24 09:00:38;;;;;;;1.90;1.70;;;21.60;42.70;;;;;;20283;6884;309270;31
2023/09/24 09:03:05;;;;;;;1.75;1.65;;;21.80;41.80;;;;;;20322;6881;309325;31
2023/09/24 09:05:34;;;;;;;1.75;1.65;;;22.10;41.10;;;;;;20333;6881;339575;31
2023/09/24 09:08:01;;;;;;;1.50;1.40;;;22.40;40.10;;;;;;20558;6885;123827;31
2023/09/24 09:10:27;;;;;;;2.60;1.60;;;22.40;40.60;;;;;;20379;6870;308728;31
2023/09/24 09:12:52;;;;;;;2.20;1.70;;;22.50;39.60;;;;;;20359;6881;285397;31
2023/09/24 09:15:18;;;;;;;1.30;1.30;;;22.70;39.10;;;;;;20449;6885;119793;31
2023/09/24 09:17:43;;;;;;;2.67;1.60;;;22.60;39.10;;;;;;20495;6881;117418;31
2023/09/24 09:20:09;;;;;;;1.70;1.30;;;22.40;39.70;;;;;;20544;6881;117535;31
2023/09/24 09:22:35;;;;;;;1.43;1.33;;;22.20;40.20;;;;;;20353;6881;309891;31
2023/09/24 09:25:06;;;;;;;1.92;1.73;;;22.30;38.50;;;;;;20321;6881;283645;31
2023/09/24 09:27:32;;;;;;;1.53;1.43;;;22.50;37.80;;;;;;20545;6881;119837;31
2023/09/24 09:30:12;;;;;;;4.13;1.70;;;22.50;38.60;;;;;;20572;6881;117085;31
2023/09/24 09:32:38;;;;;;;2.27;1.53;;;22.40;39.30;;;;;;20540;6881;120449;31
2023/09/24 09:35:03;;;;;;;2.20;1.90;;;22.30;39.70;;;;;;20322;6881;279825;31
2023/09/24 09:37:27;;;;;;;1.80;1.70;;;22.50;37.90;;;;;;20303;6881;284582;31
2023/09/24 09:39:53;;;;;;;2.17;1.70;;;22.80;36.20;;;;;;20546;6881;118592;31
2023/09/24 09:42:18;;;;;;;2.10;1.90;;;22.80;36.80;;;;;;20285;6881;279862;31
2023/09/24 09:44:45;;;;;;;2.13;1.70;;;22.80;36.10;;;;;;20500;6885;119924;31
2023/09/24 09:47:11;;;;;;;1.80;1.67;;;22.80;36.70;;;;;;20516;6881;117682;31
2023/09/24 09:49:36;;;;;;;2.53;1.80;;;22.60;37.20;;;;;;20332;6885;338589;31
2023/09/24 09:52:02;;;;;;;2.00;1.80;;;22.70;36.20;;;;;;20383;6870;285205;31
2023/09/24 09:54:27;;;;;;;3.43;1.80;;;22.90;35.70;;;;;;20541;6885;122199;31
2023/09/24 09:56:53;;;;;;;2.83;2.03;;;22.80;36.30;;;;;;20282;6881;279908;31
2023/09/24 09:59:18;;;;;;;2.95;1.80;;;22.90;35.90;;;;;;20294;6881;338387;31
2023/09/24 10:01:44;;;;;;;2.08;1.87;;;23.10;35.60;;;;;;20300;6881;314107;31
2023/09/24 10:04:09;;;;;;;2.50;1.87;;;23.30;34.50;;;;;;20560;6885;120984;31
2023/09/24 10:06:37;;;;;;;1.33;1.23;;;23.10;35.00;;;;;;20566;6881;118419;31
2023/09/24 10:09:00;;;;;;;1.77;1.67;;;22.80;35.80;;;;;;20568;6880;117109;31
2023/09/24 10:11:29;;;;;;;2.08;1.85;;;22.60;36.60;;;;;;20372;6881;279910;31
2023/09/24 10:13:55;;;;;;;2.37;2.17;;;22.80;34.80;;;;;;20334;6881;308310;31
2023/09/24 10:16:35;;;;;;;1.60;1.50;;;23.00;35.00;;;;;;20582;6881;117139;31
2023/09/24 10:18:59;;;;;;;2.40;2.15;;;23.00;35.20;;;;;;20349;6885;279531;31
2023/09/24 10:21:34;;;;;;;3.55;2.37;;;23.10;34.40;;;;;;20390;6870;309427;31
2023/09/24 10:24:09;;;;;;;2.70;2.50;;;23.30;34.00;;;;;;20302;6881;315849;31
2023/09/24 10:26:45;;;;;;;2.65;1.92;;;23.50;33.40;;;;;;20304;6885;314285;31
2023/09/24 10:29:11;;;;;;;1.80;1.70;;;23.70;32.80;;;;;;20352;6881;283190;31
2023/09/24 10:32:13;;;;;;;1.53;1.43;;;23.80;33.50;;;;;;20573;6881;117169;31
2023/09/24 10:34:55;;;;;;;2.57;1.70;;;23.60;34.10;;;;;;20538;6885;117478;31
2023/09/24 10:37:24;;;;;;;1.92;1.73;;;23.20;34.90;;;;;;20367;6881;344971;31
2023/09/24 10:39:59;;;;;;;3.27;1.63;;;23.30;34.40;;;;;;20573;6881;123339;31
2023/09/24 10:42:28;;;;;;;1.63;1.53;;;23.30;34.60;;;;;;20363;6881;280449;31
2023/09/24 10:45:07;;;;;;;1.60;1.50;;;23.40;34.70;;;;;;20356;6885;308745;31
2023/09/24 10:47:42;;;;;;;5.07;1.83;;;23.70;33.30;;;;;;20351;6881;279223;31
2023/09/24 10:50:14;;;;;;;1.60;1.50;;;24.00;34.10;;;;;;20569;6881;117142;31
2023/09/24 10:52:58;;;;;;;9.70;8.80;;;24.00;34.60;;;;;;20525;6885;123298;31
2023/09/24 10:57:54;;;;;;;1.42;1.33;;;23.80;32.90;;;;;;20370;6881;281462;31
2023/09/24 11:00:20;;;;;;;1.65;1.40;;;23.90;31.30;;;;;;20348;6881;308590;31
2023/09/24 11:02:45;;;;;;;1.97;1.40;;;24.10;32.50;;;;;;20550;6881;120474;31
2023/09/24 11:05:10;;;;;;;1.97;1.67;;;24.00;33.20;;;;;;20341;6885;310356;31
2023/09/24 11:07:36;;;;;;;2.40;1.40;;;24.00;33.70;;;;;;20569;6881;117080;31
2023/09/24 11:10:01;;;;;;;1.27;1.17;;;23.80;33.90;;;;;;20564;6885;117928;31
2023/09/24 11:12:27;;;;;;;2.47;1.75;;;23.60;34.50;;;;;;20346;6881;279403;31
2023/09/24 11:14:56;;;;;;;2.20;1.70;;;23.70;34.50;;;;;;20345;6881;310405;31
2023/09/24 11:17:22;;;;;;;2.12;1.60;;;24.00;34.90;;;;;;20357;6881;325782;31
2023/09/24 11:19:48;;;;;;;1.70;1.60;;;24.30;34.70;;;;;;20365;6881;284940;31
2023/09/24 11:22:24;;;;;;;1.40;1.30;;;24.40;32.10;;;;;;20452;6880;121057;31
2023/09/24 11:25:06;;;;;;;1.60;1.50;;;24.30;33.10;;;;;;20309;6881;310905;31
2023/09/24 11:27:32;;;;;;;1.80;1.60;;;24.20;33.50;;;;;;20297;6885;311415;31
2023/09/24 11:29:57;;;;;;;1.30;1.20;;;24.20;33.10;;;;;;20544;6881;116959;31
2023/09/24 11:32:23;;;;;;;0.90;0.90;;;24.00;33.40;;;;;;20557;6881;119576;31
2023/09/24 11:34:48;;;;;;;2.03;1.50;;;23.70;33.70;;;;;;20337;6885;279345;31
2023/09/24 11:37:19;;;;;;;2.20;1.58;;;23.70;33.50;;;;;;20367;6881;308434;31
2023/09/24 11:39:43;;;;;;;1.40;1.30;;;23.90;33.70;;;;;;20350;6881;339423;31
2023/09/24 11:42:08;;;;;;;2.45;1.30;;;24.10;31.80;;;;;;20557;6885;121365;31
2023/09/24 11:44:47;;;;;;;1.30;1.20;;;23.90;32.20;;;;;;20551;6881;119251;31
2023/09/24 11:47:12;;;;;;;1.17;1.13;;;23.60;32.90;;;;;;20571;6881;119704;31
2023/09/24 11:49:38;;;;;;;1.70;1.30;;;23.40;33.40;;;;;;20365;6881;312108;31
2023/09/24 11:52:07;;;;;;;1.67;1.35;;;23.50;33.10;;;;;;20358;6881;304783;31
2023/09/24 11:54:32;;;;;;;3.27;1.70;;;23.70;32.90;;;;;;20336;6881;279810;31
2023/09/24 11:56:58;;;;;;;1.50;1.40;;;23.90;32.20;;;;;;20554;6885;117864;31
2023/09/24 11:59:23;;;;;;;1.83;1.73;;;23.80;32.80;;;;;;20364;6881;309870;31
2023/09/24 12:01:49;;;;;;;2.83;2.40;;;23.80;32.90;;;;;;20369;6879;341468;31
2023/09/24 12:04:18;;;;;;;4.07;1.50;;;24.00;31.80;;;;;;20564;6885;121078;31
2023/09/24 12:06:45;;;;;;;1.63;1.50;;;23.90;32.10;;;;;;20353;6881;278741;31
2023/09/24 12:09:10;;;;;;;1.43;1.33;;;23.90;32.60;;;;;;20574;6885;117139;31
2023/09/24 12:11:37;;;;;;;1.67;1.48;;;23.80;32.60;;;;;;20369;6881;308968;31
2023/09/24 12:14:02;;;;;;;1.87;1.20;;;23.80;32.50;;;;;;20578;6881;117383;31
2023/09/24 12:16:29;;;;;;;1.40;1.30;;;23.70;32.40;;;;;;20542;6885;120063;31
2023/09/24 12:18:55;;;;;;;1.60;1.50;;;23.50;32.60;;;;;;20397;6881;308791;31
2023/09/24 12:21:20;;;;;;;1.17;1.17;;;23.50;32.50;;;;;;20613;6881;117423;31
2023/09/24 12:23:46;;;;;;;1.60;1.50;;;23.40;32.40;;;;;;20329;6885;281266;31
2023/09/24 12:26:11;;;;;;;1.63;1.53;;;23.50;31.60;;;;;;20397;6881;279737;31
2023/09/24 12:28:37;;;;;;;1.70;1.60;;;23.60;32.10;;;;;;20385;6881;338776;31
2023/09/24 12:31:03;;;;;;;2.37;1.63;;;23.90;31.40;;;;;;20409;6879;311026;31
2023/09/24 12:33:28;;;;;;;1.97;1.67;;;24.00;31.50;;;;;;20613;6878;117201;31
2023/09/24 12:35:54;;;;;;;1.50;1.40;;;23.90;31.40;;;;;;20625;6879;117018;31
2023/09/24 12:38:19;;;;;;;1.60;1.50;;;23.60;31.90;;;;;;20393;6879;308550;31
2023/09/24 12:40:47;;;;;;;2.30;1.80;;;23.60;32.40;;;;;;20559;6885;117641;31
2023/09/24 12:43:12;;;;;;;1.73;1.63;;;23.50;32.30;;;;;;20394;6881;309035;31